Terminal Aerodrome Forecast
Issued by NWS

Home | Current Version | Previous Version | Text Only | Print | Product List | Glossary On
Versions: 1 2 3 4 5 6 7 8 9 10 11
696
FTUS45 KABQ 250534
TAFGUP
TAF
KGUP 250534Z 2506/2606 24020G30KT P6SM SCT100
     FM250800 22015G25KT P6SM BKN050
     FM251400 23017G27KT 5SM -RA BR OVC025
     FM252100 28020G30KT P6SM VCSH OVC035=

USA.gov is the U.S. government's official web portal to all federal, state and local government web resources and services.